Time;durP1;ratioP1;P1;durP2;ratioP2;P2;SDS_P1;SDS_P2;PMS_P1;PMS_P2;Temp;Humidity;BMP_temperature;BMP_pressure;BME280_temperature;BME280_humidity;BME280_pressure;Samples;Min_cycle;Max_cycle;Signal;HPM_P1;HPM_P2
2021/05/24 00:01:37;;;;;;;;;;;;;;;13.90;70.15;97395.09;1759050;81;20170;-83
2021/05/24 00:04:04;;;;;;;;;;;;;;;13.86;69.87;97403.81;1746790;81;20174;-85
2021/05/24 00:06:30;;;;;;;;;;;;;;;13.86;69.93;97407.78;1755273;81;20158;-81
2021/05/24 00:08:58;;;;;;;;;;;;;;;13.87;69.49;97409.96;1754311;81;20187;-82
2021/05/24 00:11:24;;;;;;;;;;;;;;;13.82;69.49;97403.75;1763369;81;20188;-83
2021/05/24 00:13:55;;;;;;;;;;;;;;;13.81;69.00;97405.19;1761068;81;20189;-81
2021/05/24 00:16:22;;;;;;;;;;;;;;;13.77;69.61;97400.65;1765729;79;20150;-82
2021/05/24 00:18:51;;;;;;;;;;;;;;;13.72;69.99;97398.41;1777714;81;20199;-82
2021/05/24 00:21:18;;;;;;;;;;;;;;;13.63;70.98;97397.89;1777392;81;20215;-83
2021/05/24 00:23:45;;;;;;;;;;;;;;;13.56;70.67;97406.03;1777969;81;20251;-85
2021/05/24 00:26:12;;;;;;;;;;;;;;;13.45;70.13;97406.13;1774340;81;20259;-83
2021/05/24 00:28:39;;;;;;;;;;;;;;;13.31;71.34;97410.80;1767659;81;20152;-85
2021/05/24 00:31:05;;;;;;;;;;;;;;;13.21;71.72;97410.73;1773972;81;20532;-82
2021/05/24 00:33:32;;;;;;;;;;;;;;;13.13;70.82;97404.77;1774162;81;20228;-83
2021/05/24 00:35:58;;;;;;;;;;;;;;;13.07;71.15;97418.55;1776425;81;20192;-84
2021/05/24 00:38:24;;;;;;;;;;;;;;;13.02;70.41;97415.93;1750520;81;20170;-82
2021/05/24 00:40:50;;;;;;;;;;;;;;;12.91;70.79;97420.83;1746919;82;20174;-82
2021/05/24 00:43:16;;;;;;;;;;;;;;;12.80;70.90;97420.41;1746801;82;20213;-81
2021/05/24 00:45:42;;;;;;;;;;;;;;;12.75;70.41;97418.63;1747138;81;20162;-81
2021/05/24 00:48:09;;;;;;;;;;;;;;;12.72;71.65;97425.02;1748606;81;20170;-80
2021/05/24 00:50:37;;;;;;;;;;;;;;;12.67;71.01;97431.16;1752292;81;20184;-80
2021/05/24 00:53:04;;;;;;;;;;;;;;;12.66;70.44;97440.09;1753434;81;20177;-82
2021/05/24 00:55:32;;;;;;;;;;;;;;;12.68;71.43;97435.48;1768864;81;20203;-80
2021/05/24 00:57:58;;;;;;;;;;;;;;;12.72;70.97;97443.53;1776473;81;20532;-82
2021/05/24 01:00:36;;;;;;;;;;;;;;;12.74;70.83;97458.80;1777079;81;20536;-82
2021/05/24 01:03:04;;;;;;;;;;;;;;;12.75;71.34;97462.27;1776433;80;20166;-82
2021/05/24 01:05:31;;;;;;;;;;;;;;;12.77;69.77;97463.81;1764745;80;20230;-82
2021/05/24 01:07:57;;;;;;;;;;;;;;;12.74;70.56;97467.20;1753034;82;20229;-82
2021/05/24 01:10:23;;;;;;;;;;;;;;;12.74;70.90;97467.20;1752979;82;20229;-82
2021/05/24 01:12:49;;;;;;;;;;;;;;;12.75;70.87;97463.13;1768349;81;20151;-81
2021/05/24 01:15:16;;;;;;;;;;;;;;;12.77;70.88;97463.81;1783370;80;20191;-82
2021/05/24 01:17:43;;;;;;;;;;;;;;;12.80;69.02;97467.53;1783423;80;20188;-80
2021/05/24 01:20:10;;;;;;;;;;;;;;;12.80;70.70;97472.00;1755669;80;20237;-81
2021/05/24 01:22:38;;;;;;;;;;;;;;;12.83;70.58;97477.02;1752483;82;20214;-81
2021/05/24 01:25:08;;;;;;;;;;;;;;;12.85;71.80;97480.88;1753633;81;20221;-83
2021/05/24 01:27:34;;;;;;;;;;;;;;;12.88;70.73;97479.27;1767955;81;20211;-80
2021/05/24 01:30:01;;;;;;;;;;;;;;;12.95;70.08;97491.02;1772930;81;20165;-82
2021/05/24 01:32:28;;;;;;;;;;;;;;;13.01;70.13;97495.81;1756217;81;20164;-80
2021/05/24 01:34:54;;;;;;;;;;;;;;;13.08;70.44;97500.11;1761758;81;20163;-80
2021/05/24 01:37:21;;;;;;;;;;;;;;;13.11;70.49;97500.69;1780068;79;20563;-81
2021/05/24 01:39:47;;;;;;;;;;;;;;;13.17;70.74;97505.09;1759596;80;20503;-82
2021/05/24 01:42:13;;;;;;;;;;;;;;;13.23;70.36;97506.75;1753853;82;20210;-83
2021/05/24 01:44:40;;;;;;;;;;;;;;;13.27;69.51;97514.77;1754061;82;20182;-82
2021/05/24 01:47:07;;;;;;;;;;;;;;;13.30;70.83;97517.66;1765298;81;20174;-83
2021/05/24 01:49:35;;;;;;;;;;;;;;;13.34;70.34;97523.53;1770129;81;20238;-82
2021/05/24 01:52:06;;;;;;;;;;;;;;;13.34;70.42;97529.65;1777904;80;20196;-82
2021/05/24 01:54:32;;;;;;;;;;;;;;;13.35;69.23;97528.69;1758731;80;20258;-83
2021/05/24 01:56:59;;;;;;;;;;;;;;;13.39;70.50;97538.56;1783362;80;20229;-82
2021/05/24 01:59:25;;;;;;;;;;;;;;;13.40;70.03;97551.69;1764293;80;20174;-85
2021/05/24 02:01:51;;;;;;;;;;;;;;;13.38;70.51;97556.23;1770633;81;20175;-81
2021/05/24 02:04:17;;;;;;;;;;;;;;;13.27;71.00;97558.44;1757218;82;20215;-81
2021/05/24 02:06:44;;;;;;;;;;;;;;;13.21;71.09;97564.27;1773471;80;20233;-85
2021/05/24 02:09:11;;;;;;;;;;;;;;;13.18;70.44;97562.36;1788290;80;20227;-82
2021/05/24 02:11:37;;;;;;;;;;;;;;;13.13;70.72;97564.06;1789295;80;20547;-80
2021/05/24 02:14:11;;;;;;;;;;;;;;;13.06;71.33;97564.23;1789421;80;20187;-84
2021/05/24 02:16:45;;;;;;;;;;;;;;;12.95;70.98;97563.77;1789101;80;20224;-82
2021/05/24 02:19:13;;;;;;;;;;;;;;;12.86;70.78;97558.78;1745583;82;20193;-81
2021/05/24 02:21:41;;;;;;;;;;;;;;;12.76;70.34;97573.22;1754427;81;20205;-82
2021/05/24 02:24:08;;;;;;;;;;;;;;;12.76;70.73;97577.69;1759147;80;20201;-83
2021/05/24 02:26:36;;;;;;;;;;;;;;;12.70;70.70;97582.16;1767564;80;20164;-82
2021/05/24 02:29:05;;;;;;;;;;;;;;;12.68;70.65;97588.05;1770519;80;20154;-82
2021/05/24 02:31:33;;;;;;;;;;;;;;;12.69;70.96;97587.92;1758115;80;20181;-82
2021/05/24 02:33:59;;;;;;;;;;;;;;;12.67;70.76;97591.16;1758039;82;20182;-83
2021/05/24 02:36:26;;;;;;;;;;;;;;;12.64;70.54;97598.88;1770960;80;20202;-82
2021/05/24 02:38:53;;;;;;;;;;;;;;;12.64;71.17;97603.34;1769655;80;20167;-79
2021/05/24 02:41:19;;;;;;;;;;;;;;;12.63;70.33;97607.77;1761007;80;20190;-81
2021/05/24 02:43:45;;;;;;;;;;;;;;;12.64;70.90;97613.42;1759112;80;20183;-82
2021/05/24 02:46:12;;;;;;;;;;;;;;;12.67;70.41;97626.05;1757975;82;20203;-81
2021/05/24 02:48:38;;;;;;;;;;;;;;;12.64;70.28;97621.35;1757986;82;20189;-82
2021/05/24 02:51:04;;;;;;;;;;;;;;;12.61;70.27;97620.30;1760698;80;20168;-81
2021/05/24 02:53:31;;;;;;;;;;;;;;;12.61;70.08;97625.59;1789597;80;20129;-85
2021/05/24 02:55:57;;;;;;;;;;;;;;;12.57;70.13;97627.27;1788768;80;20223;-82
2021/05/24 02:58:23;;;;;;;;;;;;;;;12.54;70.14;97628.34;1758927;82;20133;-81
2021/05/24 03:00:49;;;;;;;;;;;;;;;12.49;69.57;97628.70;1759196;80;20222;-84
2021/05/24 03:03:15;;;;;;;;;;;;;;;12.43;69.72;97629.20;1739340;82;20188;-83
2021/05/24 03:05:41;;;;;;;;;;;;;;;12.38;69.85;97639.78;1726968;82;20172;-82
2021/05/24 03:08:07;;;;;;;;;;;;;;;12.24;70.26;97641.72;1720026;82;20175;-80
2021/05/24 03:10:33;;;;;;;;;;;;;;;12.19;70.71;97639.91;1716843;82;20495;-81
2021/05/24 03:13:00;;;;;;;;;;;;;;;12.17;70.64;97648.43;1744210;82;20532;-82
2021/05/24 03:15:26;;;;;;;;;;;;;;;12.15;69.91;97652.52;1741460;82;20165;-83
2021/05/24 03:17:52;;;;;;;;;;;;;;;12.15;70.51;97663.59;1717614;82;20207;-83
2021/05/24 03:20:19;;;;;;;;;;;;;;;12.15;70.61;97664.41;1741683;82;20185;-83
2021/05/24 03:22:46;;;;;;;;;;;;;;;12.15;71.53;97673.66;1746958;82;20173;-83
2021/05/24 03:25:16;;;;;;;;;;;;;;;12.16;70.43;97691.67;1740763;82;20176;-81
2021/05/24 03:27:42;;;;;;;;;;;;;;;12.14;71.02;97705.50;1718134;82;20187;-82
2021/05/24 03:30:09;;;;;;;;;;;;;;;12.16;71.12;97700.45;1733189;82;20179;-80
2021/05/24 03:32:36;;;;;;;;;;;;;;;12.19;71.59;97694.08;1746647;82;20165;-81
2021/05/24 03:35:03;;;;;;;;;;;;;;;12.25;70.62;97694.92;1746829;82;20517;-82
2021/05/24 03:37:29;;;;;;;;;;;;;;;12.31;70.53;97701.53;1734304;82;20192;-79
2021/05/24 03:39:56;;;;;;;;;;;;;;;12.36;69.74;97705.14;1740408;82;20173;-81
2021/05/24 03:42:22;;;;;;;;;;;;;;;12.37;70.13;97705.50;1717686;82;20171;-81
2021/05/24 03:44:49;;;;;;;;;;;;;;;12.45;69.96;97711.89;1718840;82;20191;-83
2021/05/24 03:47:15;;;;;;;;;;;;;;;12.49;69.30;97710.67;1727326;82;20189;-84
2021/05/24 03:49:45;;;;;;;;;;;;;;;12.50;70.03;97720.78;1717035;84;20172;-82
2021/05/24 03:52:10;;;;;;;;;;;;;;;12.58;70.10;97730.73;1717561;82;20500;-82
2021/05/24 03:54:36;;;;;;;;;;;;;;;12.68;70.11;97736.16;1727780;82;20177;-84
2021/05/24 03:57:02;;;;;;;;;;;;;;;12.88;70.08;97736.76;1733410;82;20520;-84
2021/05/24 03:59:28;;;;;;;;;;;;;;;13.33;70.08;97741.09;1714850;82;20168;-87
2021/05/24 04:01:55;;;;;;;;;;;;;;;13.96;68.85;97739.08;1738646;82;20189;-85
2021/05/24 04:04:22;;;;;;;;;;;;;;;14.59;68.06;97739.50;1745358;82;20593;-85
2021/05/24 04:06:54;;;;;;;;;;;;;;;15.29;66.86;97738.26;1737276;82;20562;-85
2021/05/24 04:09:16;;;;;;;;;;;;;;;15.99;64.53;97744.47;1733766;82;20233;-85
2021/05/24 04:11:42;;;;;;;;;;;;;;;16.62;63.61;97743.88;1724769;82;20181;-84
2021/05/24 04:14:08;;;;;;;;;;;;;;;17.15;63.99;97738.41;1733569;82;20192;-82
2021/05/24 04:16:35;;;;;;;;;;;;;;;17.66;60.70;97733.08;1725902;82;20169;-83
2021/05/24 04:19:06;;;;;;;;;;;;;;;18.17;57.71;97732.02;1724997;82;20172;-84
2021/05/24 04:21:29;;;;;;;;;;;;;;;18.63;60.78;97734.48;1721903;82;20237;-79
2021/05/24 04:23:55;;;;;;;;;;;;;;;18.91;53.54;97743.12;1725594;82;20187;-83
2021/05/24 04:26:21;;;;;;;;;;;;;;;19.33;55.52;97754.81;1722070;82;20169;-83
2021/05/24 04:28:47;;;;;;;;;;;;;;;19.69;53.90;97765.76;1712361;82;20243;-83
2021/05/24 04:31:13;;;;;;;;;;;;;;;20.08;54.27;97767.83;1712163;84;20168;-83
2021/05/24 04:33:39;;;;;;;;;;;;;;;20.51;53.11;97776.48;1728159;82;20181;-83
2021/05/24 04:36:05;;;;;;;;;;;;;;;21.04;52.07;97778.21;1727500;82;20528;-83
2021/05/24 04:38:31;;;;;;;;;;;;;;;21.50;53.49;97777.47;1730447;82;20521;-83
2021/05/24 04:40:57;;;;;;;;;;;;;;;21.95;47.06;97779.55;1712025;84;20514;-82
2021/05/24 04:43:28;;;;;;;;;;;;;;;22.17;54.10;97782.41;1712008;84;20176;-85
2021/05/24 04:45:51;;;;;;;;;;;;;;;22.00;47.47;97786.58;1739180;82;20510;-81
2021/05/24 04:48:17;;;;;;;;;;;;;;;21.79;46.84;97794.77;1741321;82;20153;-82
2021/05/24 04:50:43;;;;;;;;;;;;;;;21.64;44.92;97798.71;1712198;82;20196;-83
2021/05/24 04:53:09;;;;;;;;;;;;;;;21.40;47.89;97798.83;1740465;82;20205;-84
2021/05/24 04:55:35;;;;;;;;;;;;;;;21.30;46.36;97803.05;1741241;82;20184;-82
2021/05/24 04:58:01;;;;;;;;;;;;;;;21.16;46.94;97810.83;1741147;82;20228;-84
2021/05/24 05:00:28;;;;;;;;;;;;;;;20.89;50.84;97820.11;1735176;82;20183;-84
2021/05/24 05:02:54;;;;;;;;;;;;;;;20.99;45.94;97815.39;1714953;82;20243;-82
2021/05/24 05:05:20;;;;;;;;;;;;;;;21.19;47.54;97817.19;1747843;81;20250;-83
2021/05/24 05:07:46;;;;;;;;;;;;;;;21.51;48.27;97818.55;1759488;81;20182;-83
2021/05/24 05:10:12;;;;;;;;;;;;;;;21.89;44.50;97823.21;1768419;79;20171;-81
2021/05/24 05:12:38;;;;;;;;;;;;;;;22.36;44.36;97829.42;1762531;79;20167;-84
2021/05/24 05:15:05;;;;;;;;;;;;;;;22.67;47.53;97837.89;1759381;81;20156;-81
2021/05/24 05:17:31;;;;;;;;;;;;;;;23.03;40.99;97843.41;1750091;81;20246;-83
2021/05/24 05:19:58;;;;;;;;;;;;;;;23.59;39.63;97838.56;1750759;81;20179;-82
2021/05/24 05:22:24;;;;;;;;;;;;;;;23.95;40.01;97836.41;1775889;81;20583;-81
2021/05/24 05:24:50;;;;;;;;;;;;;;;24.30;38.26;97836.56;1786562;79;20244;-82
2021/05/24 05:27:16;;;;;;;;;;;;;;;24.38;41.75;97838.27;1770950;81;20233;-82
2021/05/24 05:29:43;;;;;;;;;;;;;;;24.15;39.68;97849.56;1767567;81;20179;-81
2021/05/24 05:32:09;;;;;;;;;;;;;;;24.22;38.58;97852.33;1745623;82;20203;-82
2021/05/24 05:34:35;;;;;;;;;;;;;;;24.46;37.05;97863.72;1769348;79;20146;-82
2021/05/24 05:37:01;;;;;;;;;;;;;;;24.83;35.82;97869.04;1807720;79;20241;-81
2021/05/24 05:39:28;;;;;;;;;;;;;;;25.00;36.86;97869.05;1787100;79;20564;-83
2021/05/24 05:41:54;;;;;;;;;;;;;;;25.30;36.26;97874.72;1759028;81;20578;-81
2021/05/24 05:44:20;;;;;;;;;;;;;;;25.30;36.00;97885.52;1759679;81;20538;-82
2021/05/24 05:46:46;;;;;;;;;;;;;;;25.29;37.93;97879.83;1745426;82;20547;-82
2021/05/24 05:49:12;;;;;;;;;;;;;;;25.24;36.49;97880.42;1747396;81;20534;-81
2021/05/24 05:51:38;;;;;;;;;;;;;;;25.35;38.27;97879.84;1765953;81;20196;-82
2021/05/24 05:54:04;;;;;;;;;;;;;;;25.14;36.16;97880.77;1774018;81;20176;-83
2021/05/24 05:56:30;;;;;;;;;;;;;;;25.16;34.88;97882.75;1775962;81;20231;-82
2021/05/24 05:58:56;;;;;;;;;;;;;;;25.16;39.82;97885.95;1775913;81;20179;-83
2021/05/24 06:01:22;;;;;;;;;;;;;;;24.44;35.24;97880.09;1776032;81;20160;-83
2021/05/24 06:03:49;;;;;;;;;;;;;;;24.51;35.44;97865.84;1750630;79;20192;-83
2021/05/24 06:06:15;;;;;;;;;;;;;;;24.71;35.23;97868.75;1774362;81;20503;-80
2021/05/24 06:08:41;;;;;;;;;;;;;;;24.89;35.00;97872.29;1779261;79;20503;-81
2021/05/24 06:11:07;;;;;;;;;;;;;;;25.30;38.29;97874.72;1764197;80;20140;-80
2021/05/24 06:13:34;;;;;;;;;;;;;;;25.57;36.95;97870.34;1781387;80;20249;-80
2021/05/24 06:16:00;;;;;;;;;;;;;;;25.67;35.87;97871.30;1757954;80;20225;-80
2021/05/24 06:18:26;;;;;;;;;;;;;;;25.45;34.22;97870.08;1750584;82;20506;-81
2021/05/24 06:20:52;;;;;;;;;;;;;;;25.40;35.43;97869.83;1779507;79;20496;-82
2021/05/24 06:23:19;;;;;;;;;;;;;;;25.65;34.97;97873.39;1766926;81;20154;-82
2021/05/24 06:25:47;;;;;;;;;;;;;;;25.99;37.09;97879.73;1780611;80;20191;-83
2021/05/24 06:28:14;;;;;;;;;;;;;;;26.07;33.19;97875.49;1751056;80;20164;-81
2021/05/24 06:30:40;;;;;;;;;;;;;;;26.56;33.67;97862.70;1750760;81;20168;-82
2021/05/24 06:33:06;;;;;;;;;;;;;;;26.96;35.90;97857.31;1750649;82;20176;-82
2021/05/24 06:35:34;;;;;;;;;;;;;;;27.11;33.53;97852.17;1750596;81;20140;-82
2021/05/24 06:38:01;;;;;;;;;;;;;;;27.15;34.09;97849.87;1750657;81;20484;-82
2021/05/24 06:40:27;;;;;;;;;;;;;;;27.06;30.28;97846.04;1750689;81;20176;-82
2021/05/24 06:42:53;;;;;;;;;;;;;;;26.74;34.12;97843.66;1750765;82;20152;-83
2021/05/24 06:45:19;;;;;;;;;;;;;;;26.39;31.18;97843.87;1750677;81;20180;-82
2021/05/24 06:47:46;;;;;;;;;;;;;;;26.42;31.55;97836.72;1750645;81;20176;-80
2021/05/24 06:50:13;;;;;;;;;;;;;;;26.65;32.41;97839.82;1750661;81;20164;-82
2021/05/24 06:52:40;;;;;;;;;;;;;;;26.48;33.49;97831.33;1750662;81;20156;-82
2021/05/24 06:55:07;;;;;;;;;;;;;;;26.40;33.03;97820.72;1750699;81;20160;-82
2021/05/24 06:57:35;;;;;;;;;;;;;;;26.39;32.87;97819.05;1750612;82;20140;-83
2021/05/24 07:00:01;;;;;;;;;;;;;;;26.59;32.11;97820.90;1750715;81;20194;-82
2021/05/24 07:02:27;;;;;;;;;;;;;;;26.58;34.06;97834.95;1750953;82;20528;-83
2021/05/24 07:04:54;;;;;;;;;;;;;;;26.47;34.54;97839.11;1755866;81;20163;-82
2021/05/24 07:07:20;;;;;;;;;;;;;;;26.41;31.99;97846.68;1758409;82;20163;-83
2021/05/24 07:09:46;;;;;;;;;;;;;;;26.39;31.40;97850.64;1758427;81;20473;-81
2021/05/24 07:12:12;;;;;;;;;;;;;;;26.37;34.31;97850.84;1758351;81;20183;-82
2021/05/24 07:14:38;;;;;;;;;;;;;;;25.95;32.22;97840.16;1758404;82;20191;-83
2021/05/24 07:17:04;;;;;;;;;;;;;;;26.01;34.58;97847.43;1758401;82;20136;-84
2021/05/24 07:19:30;;;;;;;;;;;;;;;25.78;31.90;97851.83;1758582;82;20163;-85
2021/05/24 07:21:56;;;;;;;;;;;;;;;25.94;32.75;97853.87;1758610;81;20164;-84
2021/05/24 07:24:22;;;;;;;;;;;;;;;25.82;33.11;97865.75;1758572;82;20136;-83
2021/05/24 07:26:50;;;;;;;;;;;;;;;25.97;34.08;97879.09;1758646;81;20160;-84
2021/05/24 07:29:17;;;;;;;;;;;;;;;26.16;32.03;97872.13;1758451;82;20164;-85
2021/05/24 07:31:43;;;;;;;;;;;;;;;26.39;31.96;97869.05;1765012;80;20179;-83
2021/05/24 07:34:09;;;;;;;;;;;;;;;26.23;31.01;97858.11;1771862;80;20538;-82
2021/05/24 07:36:36;;;;;;;;;;;;;;;25.91;31.49;97856.44;1755600;82;20550;-82
2021/05/24 07:39:03;;;;;;;;;;;;;;;26.05;30.25;97850.55;1780958;80;20191;-82
2021/05/24 07:41:29;;;;;;;;;;;;;;;26.33;30.65;97861.75;1786682;80;20179;-81
2021/05/24 07:43:55;;;;;;;;;;;;;;;26.71;29.89;97861.14;1786653;80;20476;-85
2021/05/24 07:46:21;;;;;;;;;;;;;;;26.93;32.40;97863.12;1786680;80;20214;-84
2021/05/24 07:48:48;;;;;;;;;;;;;;;26.71;29.11;97852.21;1786599;80;20238;-83
2021/05/24 07:51:14;;;;;;;;;;;;;;;26.66;29.78;97854.19;1765325;79;20185;-82
2021/05/24 07:53:40;;;;;;;;;;;;;;;26.76;30.47;97857.31;1761542;80;20175;-79
2021/05/24 07:56:06;;;;;;;;;;;;;;;26.24;28.02;97846.27;1772715;80;20148;-82
2021/05/24 07:58:32;;;;;;;;;;;;;;;26.04;31.01;97844.83;1773885;81;20481;-83
2021/05/24 08:00:58;;;;;;;;;;;;;;;25.81;29.64;97837.94;1764725;80;20527;-83
2021/05/24 08:03:24;;;;;;;;;;;;;;;25.76;32.27;97846.33;1786558;80;20183;-83
2021/05/24 08:05:50;;;;;;;;;;;;;;;25.24;29.45;97838.09;1798922;79;20137;-82
2021/05/24 08:08:18;;;;;;;;;;;;;;;24.94;31.48;97834.27;1815046;79;20181;-83
2021/05/24 08:10:44;;;;;;;;;;;;;;;24.50;29.95;97827.30;1777208;81;20508;-82
2021/05/24 08:13:10;;;;;;;;;;;;;;;24.52;31.41;97829.29;1774457;80;20251;-82
2021/05/24 08:15:36;;;;;;;;;;;;;;;23.72;30.41;97834.70;1769348;80;20145;-82
2021/05/24 08:18:08;;;;;;;;;;;;;;;23.56;32.50;97851.88;1763740;81;20150;-82
2021/05/24 08:20:35;;;;;;;;;;;;;;;23.20;31.60;97858.04;1763604;81;20177;-82
2021/05/24 08:23:02;;;;;;;;;;;;;;;23.02;33.71;97861.05;1763638;81;20145;-80
2021/05/24 08:25:29;;;;;;;;;;;;;;;23.03;33.84;97858.69;1763778;81;20448;-82
2021/05/24 08:27:55;;;;;;;;;;;;;;;22.58;34.01;97847.38;1763696;81;20153;-81
2021/05/24 08:30:21;;;;;;;;;;;;;;;22.51;33.33;97850.95;1763757;81;20186;-82
2021/05/24 08:32:47;;;;;;;;;;;;;;;22.55;34.36;97850.94;1763726;81;20168;-83
2021/05/24 08:35:14;;;;;;;;;;;;;;;22.68;33.97;97839.56;1763777;81;20149;-83
2021/05/24 08:37:40;;;;;;;;;;;;;;;23.05;31.86;97836.50;1763559;81;20169;-82
2021/05/24 08:40:08;;;;;;;;;;;;;;;23.43;31.85;97839.11;1763527;81;20205;-82
2021/05/24 08:42:42;;;;;;;;;;;;;;;23.81;30.75;97834.90;1763534;81;20157;-81
2021/05/24 08:45:06;;;;;;;;;;;;;;;24.14;32.27;97845.20;1762993;81;20145;-83
2021/05/24 08:47:33;;;;;;;;;;;;;;;24.30;32.75;97837.38;1763603;81;20140;-82
2021/05/24 08:49:59;;;;;;;;;;;;;;;24.32;31.97;97819.17;1763447;81;20505;-81
2021/05/24 08:52:29;;;;;;;;;;;;;;;24.04;30.89;97815.06;1763652;81;20493;-80
2021/05/24 08:54:57;;;;;;;;;;;;;;;23.60;32.15;97808.80;1763531;81;20229;-81
2021/05/24 08:57:23;;;;;;;;;;;;;;;23.22;32.42;97821.87;1763754;81;20169;-84
2021/05/24 08:59:49;;;;;;;;;;;;;;;22.99;34.60;97825.97;1763708;81;20149;-83
2021/05/24 09:02:16;;;;;;;;;;;;;;;22.56;34.34;97832.46;1764584;80;20185;-80
2021/05/24 09:04:48;;;;;;;;;;;;;;;22.62;35.13;97834.41;1765092;80;20466;-81
2021/05/24 09:07:15;;;;;;;;;;;;;;;22.13;35.44;97839.14;1761891;81;20222;-82
2021/05/24 09:10:02;;;;;;;;;;;;;;;22.02;36.21;97852.99;1762285;81;20153;-81
2021/05/24 09:12:32;;;;;;;;;;;;;;;22.01;34.96;97848.64;1781347;80;20217;-82
2021/05/24 09:15:03;;;;;;;;;;;;;;;21.76;35.36;97842.06;1753003;81;20226;-81
2021/05/24 09:17:47;;;;;;;;;;;;;;;21.29;36.11;97849.14;1754394;80;20183;-82
2021/05/24 09:20:25;;;;;;;;;;;;;;;21.30;35.66;97844.59;1757181;80;20286;-82
2021/05/24 09:23:15;;;;;;;;;;;;;;;21.38;35.93;97829.84;1708407;83;20165;-80
2021/05/24 09:25:50;;;;;;;;;;;;;;;21.65;36.33;97821.84;1715664;84;20173;-83
2021/05/24 09:28:43;;;;;;;;;;;;;;;21.60;34.95;97816.67;1709498;84;20169;-81
2021/05/24 09:31:25;;;;;;;;;;;;;;;21.34;36.18;97823.97;1687096;85;20170;-80
2021/05/24 09:34:05;;;;;;;;;;;;;;;21.35;36.76;97831.00;1715846;82;20151;-82
2021/05/24 09:36:27;;;;;;;;;;;;;;;21.05;37.68;97831.29;1724838;82;20182;-80
2021/05/24 09:39:03;;;;;;;;;;;;;;;20.60;38.13;97836.23;1719041;82;20176;-82
2021/05/24 09:41:33;;;;;;;;;;;;;;;20.47;38.45;97825.18;1722670;82;20542;-80
2021/05/24 09:43:59;;;;;;;;;;;;;;;20.49;38.29;97825.34;1722844;82;20149;-81
2021/05/24 09:46:28;;;;;;;;;;;;;;;20.62;38.48;97826.67;1719951;82;20594;-82
2021/05/24 09:48:57;;;;;;;;;;;;;;;20.83;38.44;97825.67;1699220;82;20161;-82
2021/05/24 09:51:26;;;;;;;;;;;;;;;21.03;38.77;97818.56;1706305;84;20192;-82
2021/05/24 09:54:02;;;;;;;;;;;;;;;21.05;39.50;97816.06;1684472;83;20172;-82
2021/05/24 09:56:32;;;;;;;;;;;;;;;20.98;40.43;97814.23;1702738;83;20160;-81
2021/05/24 09:59:05;;;;;;;;;;;;;;;20.98;38.63;97804.86;1741565;80;20174;-81
2021/05/24 10:01:38;;;;;;;;;;;;;;;20.95;39.30;97806.05;1759762;80;20180;-84
2021/05/24 10:04:06;;;;;;;;;;;;;;;20.90;39.53;97811.06;1753174;82;20167;-83
2021/05/24 10:06:33;;;;;;;;;;;;;;;21.03;39.41;97828.80;1753428;82;20556;-82
2021/05/24 10:09:00;;;;;;;;;;;;;;;20.91;39.73;97822.12;1752670;82;20199;-82
2021/05/24 10:11:27;;;;;;;;;;;;;;;20.70;39.90;97821.30;1755449;80;20211;-83
2021/05/24 10:13:53;;;;;;;;;;;;;;;20.90;39.93;97821.30;1784287;80;20189;-82
2021/05/24 10:16:19;;;;;;;;;;;;;;;20.92;40.14;97809.58;1765941;80;20156;-82
2021/05/24 10:18:46;;;;;;;;;;;;;;;21.19;39.77;97806.47;1746352;80;20229;-82
2021/05/24 10:21:13;;;;;;;;;;;;;;;21.09;39.31;97815.21;1738751;80;20146;-83
2021/05/24 10:23:39;;;;;;;;;;;;;;;20.82;40.02;97817.30;1747389;82;20188;-82
2021/05/24 10:26:08;;;;;;;;;;;;;;;20.66;40.56;97809.24;1748705;80;20160;-79
2021/05/24 10:28:34;;;;;;;;;;;;;;;20.61;41.19;97791.01;1749175;80;20234;-82
2021/05/24 10:31:02;;;;;;;;;;;;;;;20.57;41.16;97779.80;1746032;82;20136;-82
2021/05/24 10:33:43;;;;;;;;;;;;;;;20.55;41.41;97789.02;1751143;80;20476;-80
2021/05/24 10:36:19;;;;;;;;;;;;;;;20.39;41.15;97789.88;1742647;80;20146;-82
2021/05/24 10:39:15;;;;;;;;;;;;;;;20.27;41.37;97788.05;1730935;80;20206;-81
2021/05/24 10:41:44;;;;;;;;;;;;;;;20.03;41.82;97784.38;1736531;80;20168;-79
2021/05/24 10:44:16;;;;;;;;;;;;;;;20.05;42.00;97776.18;1728990;82;20493;-84
2021/05/24 10:46:43;;;;;;;;;;;;;;;19.93;42.13;97768.99;1727349;81;20159;-81
2021/05/24 10:49:19;;;;;;;;;;;;;;;19.93;42.49;97776.50;1760339;80;20155;-81
2021/05/24 10:51:50;;;;;;;;;;;;;;;19.89;42.36;97778.34;1747633;81;20164;-80
2021/05/24 10:54:23;;;;;;;;;;;;;;;19.85;42.80;97774.31;1745934;82;20156;-82
2021/05/24 10:57:02;;;;;;;;;;;;;;;19.75;43.15;97777.13;1748761;80;20160;-83
2021/05/24 10:59:45;;;;;;;;;;;;;;;19.77;43.50;97767.10;1765758;80;20199;-82
2021/05/24 11:02:17;;;;;;;;;;;;;;;19.82;43.25;97784.33;1772856;80;20159;-81
2021/05/24 11:04:55;;;;;;;;;;;;;;;20.04;43.15;97782.05;1775085;79;20160;-82
2021/05/24 11:07:42;;;;;;;;;;;;;;;20.10;42.68;97775.16;1763430;81;20163;-83
2021/05/24 11:10:18;;;;;;;;;;;;;;;20.19;42.48;97772.81;1774262;81;20149;-82
2021/05/24 11:12:49;;;;;;;;;;;;;;;20.17;42.26;97771.32;1757046;81;20163;-82
2021/05/24 11:15:32;;;;;;;;;;;;;;;20.20;42.44;97774.49;1776482;80;20241;-84
2021/05/24 11:18:03;;;;;;;;;;;;;;;20.24;42.00;97774.50;1781281;80;20143;-83
2021/05/24 11:20:34;;;;;;;;;;;;;;;20.43;41.92;97768.46;1780798;80;20175;-83
2021/05/24 11:26:18;;;;;;;;;;;;;;;20.84;41.20;97756.84;1777411;81;20515;-80
2021/05/24 11:28:59;;;;;;;;;;;;;;;20.73;41.70;97758.88;1776986;81;20189;-83
2021/05/24 11:31:40;;;;;;;;;;;;;;;20.76;41.25;97759.03;1781143;81;20483;-84
2021/05/24 11:34:08;;;;;;;;;;;;;;;20.96;40.73;97771.55;1780195;80;20247;-81
2021/05/24 11:36:42;;;;;;;;;;;;;;;20.82;41.03;97758.85;1776930;81;20222;-83
2021/05/24 11:39:15;;;;;;;;;;;;;;;20.82;41.06;97752.16;1780897;80;20484;-82
2021/05/24 11:41:54;;;;;;;;;;;;;;;20.76;41.36;97744.30;1761761;80;20480;-83
2021/05/24 11:44:23;;;;;;;;;;;;;;;20.66;41.21;97748.50;1779046;81;20523;-82
2021/05/24 11:46:51;;;;;;;;;;;;;;;20.62;41.58;97753.84;1750562;82;20157;-82
2021/05/24 11:49:19;;;;;;;;;;;;;;;20.60;41.79;97755.38;1753409;81;20215;-84
2021/05/24 11:51:47;;;;;;;;;;;;;;;20.57;41.79;97744.17;1759936;81;20183;-84
2021/05/24 11:54:19;;;;;;;;;;;;;;;20.66;41.56;97743.14;1779000;80;20156;-84
2021/05/24 11:56:46;;;;;;;;;;;;;;;20.73;41.64;97752.19;1778845;80;20192;-82
2021/05/24 11:59:14;;;;;;;;;;;;;;;20.85;41.61;97749.14;1779768;81;20156;-84
2021/05/24 12:01:43;;;;;;;;;;;;;;;20.87;41.36;97744.45;1763679;79;20209;-82
2021/05/24 12:04:18;;;;;;;;;;;;;;;20.68;41.76;97738.45;1761642;80;20202;-85
2021/05/24 12:07:05;;;;;;;;;;;;;;;20.50;42.09;97730.63;1780753;80;20158;-84
2021/05/24 12:09:43;;;;;;;;;;;;;;;20.43;42.06;97739.83;1777328;81;20564;-83
2021/05/24 12:12:15;;;;;;;;;;;;;;;20.50;42.18;97739.99;1749647;81;20582;-83
2021/05/24 12:14:45;;;;;;;;;;;;;;;20.66;42.25;97735.59;1763088;81;20160;-83
2021/05/24 12:17:14;;;;;;;;;;;;;;;20.68;41.97;97734.92;1774887;81;20232;-84
2021/05/24 12:19:41;;;;;;;;;;;;;;;20.60;42.46;97721.89;1775935;81;20240;-84
2021/05/24 12:22:11;;;;;;;;;;;;;;;20.83;42.39;97715.84;1775883;81;20563;-84
2021/05/24 12:24:39;;;;;;;;;;;;;;;21.06;42.29;97711.03;1775884;81;20251;-84
2021/05/24 12:27:06;;;;;;;;;;;;;;;21.13;41.60;97716.02;1775961;81;20516;-85
2021/05/24 12:29:38;;;;;;;;;;;;;;;21.04;41.69;97711.22;1770869;81;20241;-84
2021/05/24 12:32:06;;;;;;;;;;;;;;;20.92;42.08;97710.44;1757307;81;20179;-84
2021/05/24 12:34:36;;;;;;;;;;;;;;;21.01;42.60;97712.07;1775702;81;20571;-84
2021/05/24 12:37:04;;;;;;;;;;;;;;;21.20;42.19;97715.63;1767786;81;20182;-82
2021/05/24 12:39:33;;;;;;;;;;;;;;;21.18;42.07;97712.80;1759156;81;20172;-81
2021/05/24 12:42:03;;;;;;;;;;;;;;;21.22;41.66;97706.09;1775762;81;20505;-82
2021/05/24 12:44:30;;;;;;;;;;;;;;;21.08;42.09;97696.10;1772712;81;20194;-80
2021/05/24 12:47:03;;;;;;;;;;;;;;;21.10;42.40;97699.45;1745387;82;20218;-81
2021/05/24 12:49:35;;;;;;;;;;;;;;;21.11;42.13;97697.10;1750978;79;20166;-81
2021/05/24 12:52:04;;;;;;;;;;;;;;;21.25;42.45;97684.80;1795725;79;20133;-81
2021/05/24 12:54:44;;;;;;;;;;;;;;;21.36;42.20;97685.73;1762542;81;20577;-81
2021/05/24 12:57:11;;;;;;;;;;;;;;;21.48;41.83;97686.97;1755114;79;20174;-81